Cabo San Lucas, BCS, Mexico
Current Conditions -  °F | °C
As of 3:45 PM on Saturday 25 Oct 2014 (Local Time) from MMSL Reporting Station
Clear Clear  
Wind Chill: 88°   Ceiling: Unl
Heat Index: 93°   Visibility: 12mi
Dew Point: 70°   Wind: 16mph
Humidity: 55%   Direction: 260°W
Pressure: 29.96"   Gusts: NA
Location:  22.88°N, 109.9°W
Report Text: MMSL 252145Z 26014KT 12SM SKC 31/21 A2996 RMK ISOL CU MSGTX MMSD
Loading
Personal Weather Stations






























Interactive Weather Map
Tropical Storm Tracking
New forecast layout! Learn more

10-Day Weather Forecast

Advertisements
Track Severe Weather on mobile